createdAt,value
2018-11-20T00:04:33.695Z,91.61
2018-11-20T00:09:42.788Z,92.43
2018-11-20T00:14:52.650Z,91.96
2018-11-20T00:25:29.476Z,92.04
2018-11-20T00:30:55.371Z,91.80
2018-11-20T00:36:27.606Z,91.33
2018-11-20T00:46:38.790Z,91.01
2018-11-20T00:52:06.088Z,91.15
2018-11-20T00:57:25.298Z,91.63
2018-11-20T01:02:56.436Z,92.06
2018-11-20T01:08:30.554Z,92.30
2018-11-20T01:19:13.339Z,92.19
2018-11-20T01:24:25.362Z,92.11
2018-11-20T01:29:53.099Z,92.24
2018-11-20T01:35:12.844Z,92.33
2018-11-20T01:40:36.303Z,92.17
2018-11-20T01:46:17.125Z,92.74
2018-11-20T01:51:40.145Z,92.62
2018-11-20T01:57:08.535Z,92.28
2018-11-20T02:02:36.534Z,92.16
2018-11-20T02:08:06.049Z,92.40
2018-11-20T02:13:51.549Z,91.11
2018-11-20T02:25:05.635Z,92.37
2018-11-20T02:30:24.731Z,92.16
2018-11-20T02:35:47.973Z,92.07
2018-11-20T02:40:59.981Z,92.08
2018-11-20T02:46:15.600Z,91.77
2018-11-20T02:51:35.611Z,91.65
2018-11-20T03:02:10.877Z,91.20
2018-11-20T03:07:21.777Z,92.56
2018-11-20T03:12:33.785Z,92.60
2018-11-20T03:23:13.830Z,91.96
2018-11-20T03:28:30.818Z,91.47
2018-11-20T03:39:17.115Z,90.43
2018-11-20T03:44:35.834Z,89.78
2018-11-20T03:55:31.812Z,89.46
2018-11-20T04:06:02.101Z,88.42
2018-11-20T04:11:15.880Z,88.00
2018-11-20T04:16:35.555Z,87.45
2018-11-20T04:21:46.836Z,86.34
2018-11-20T04:37:49.949Z,87.05
2018-11-20T04:48:26.783Z,86.67
2018-11-20T04:53:38.134Z,86.54
2018-11-20T04:58:54.139Z,86.02
2018-11-20T05:04:09.780Z,84.88
2018-11-20T05:09:18.550Z,85.75
2018-11-20T05:14:49.542Z,85.12
2018-11-20T05:20:10.970Z,84.70
2018-11-20T05:25:36.480Z,85.33
2018-11-20T05:30:44.086Z,85.60
2018-11-20T05:35:57.449Z,85.31
2018-11-20T05:41:08.559Z,86.44
2018-11-20T05:46:21.407Z,86.70
2018-11-20T05:51:33.590Z,87.14
2018-11-20T05:56:44.686Z,89.05
2018-11-20T06:01:54.924Z,89.40
2018-11-20T06:12:50.968Z,90.63
2018-11-20T06:18:05.006Z,90.93
2018-11-20T06:23:27.154Z,91.23
2018-11-20T06:28:44.759Z,90.88
2018-11-20T06:34:19.029Z,91.09
2018-11-20T06:39:38.997Z,91.78
2018-11-20T06:44:59.429Z,91.46
2018-11-20T06:50:28.157Z,91.74
2018-11-20T07:01:18.395Z,90.92
2018-11-20T07:06:40.460Z,90.13
2018-11-20T07:12:04.600Z,90.15
2018-11-20T07:17:22.417Z,90.95
2018-11-20T07:27:46.259Z,91.83
2018-11-20T07:43:35.291Z,93.11
2018-11-20T07:48:48.018Z,93.78
2018-11-20T07:54:04.274Z,94.57
2018-11-20T07:59:16.003Z,95.38
2018-11-20T08:15:37.144Z,97.31
2018-11-20T08:20:54.252Z,96.36
2018-11-20T08:25:53.913Z,96.80
2018-11-20T08:31:16.755Z,96.52
2018-11-20T08:47:14.956Z,97.69
2018-11-20T08:52:32.269Z,97.53
2018-11-20T08:57:58.739Z,96.91
2018-11-20T09:03:25.520Z,96.77
2018-11-20T09:08:44.485Z,96.16
2018-11-20T09:19:14.546Z,97.06
2018-11-20T09:24:38.029Z,97.48
2018-11-20T09:29:56.831Z,98.06
2018-11-20T09:35:22.224Z,98.10
2018-11-20T09:41:04.076Z,97.96
2018-11-20T09:46:23.442Z,97.25
2018-11-20T09:51:45.525Z,96.96
2018-11-20T09:57:13.949Z,96.81
2018-11-20T10:02:25.251Z,97.04
2018-11-20T10:07:36.701Z,97.27
2018-11-20T10:13:07.693Z,96.84
2018-11-20T10:18:26.381Z,96.52
2018-11-20T10:23:38.018Z,97.01
2018-11-20T10:28:54.930Z,97.53
2018-11-20T10:34:15.914Z,98.39
2018-11-20T10:39:35.593Z,97.72
2018-11-20T10:44:54.783Z,97.79
2018-11-20T10:50:06.251Z,98.33
2018-11-20T10:55:25.230Z,98.33
2018-11-20T11:00:36.967Z,97.11
2018-11-20T11:05:52.407Z,97.66
2018-11-20T11:10:59.391Z,98.28
2018-11-20T11:16:24.760Z,98.88
2018-11-20T11:21:36.096Z,97.94
2018-11-20T11:26:47.795Z,98.06
2018-11-20T11:31:59.545Z,98.94
2018-11-20T11:37:11.295Z,98.71
2018-11-20T11:42:27.399Z,98.40
2018-11-20T11:47:38.971Z,97.30
2018-11-20T11:52:49.178Z,98.21
2018-11-20T11:58:01.921Z,98.44
2018-11-20T12:03:17.903Z,98.62
2018-11-20T12:08:24.544Z,98.90
2018-11-20T12:13:36.319Z,98.71
2018-11-20T12:18:49.422Z,99.42
2018-11-20T12:23:55.043Z,99.18
2018-11-20T12:29:08.041Z,99.45
2018-11-20T12:34:24.047Z,98.99
2018-11-20T12:39:29.549Z,99.17
2018-11-20T12:45:00.252Z,98.66
2018-11-20T12:50:11.347Z,99.45
2018-11-20T12:55:36.020Z,99.73
2018-11-20T13:00:47.080Z,99.71
2018-11-20T13:05:58.834Z,99.75
2018-11-20T13:11:10.353Z,99.68
2018-11-20T13:16:23.679Z,99.97
2018-11-20T13:21:29.421Z,100.00
2018-11-20T13:26:44.862Z,100.00
2018-11-20T13:31:57.140Z,100.00
2018-11-20T13:37:09.914Z,100.00
2018-11-20T13:42:34.376Z,100.00
2018-11-20T13:47:45.963Z,100.00
2018-11-20T13:52:57.629Z,100.00
2018-11-20T13:58:08.985Z,100.00
2018-11-20T14:03:21.146Z,100.00
2018-11-20T14:08:23.655Z,100.00
2018-11-20T14:13:45.924Z,100.00
2018-11-20T14:18:52.370Z,100.00
2018-11-20T14:24:14.183Z,100.00
2018-11-20T14:29:32.916Z,100.00
2018-11-20T14:34:38.697Z,100.00
2018-11-20T14:39:50.112Z,99.23
2018-11-20T14:45:08.697Z,99.43
2018-11-20T14:50:27.309Z,100.00
2018-11-20T14:55:38.878Z,100.00
2018-11-20T15:01:03.319Z,100.00
2018-11-20T15:06:14.559Z,99.76
2018-11-20T15:11:25.661Z,99.39
2018-11-20T15:16:38.752Z,98.71
2018-11-20T15:21:57.647Z,98.65
2018-11-20T15:27:13.485Z,99.15
2018-11-20T15:32:24.860Z,98.94
2018-11-20T15:37:35.973Z,99.13
2018-11-20T15:42:48.785Z,99.11
2018-11-20T15:48:00.521Z,98.88
2018-11-20T15:53:13.657Z,98.92
2018-11-20T15:58:25.923Z,99.20
2018-11-20T16:03:41.449Z,99.21
2018-11-20T16:08:45.301Z,99.98
2018-11-20T16:13:52.931Z,100.00
2018-11-20T16:19:07.217Z,100.00
2018-11-20T16:24:18.878Z,100.00
2018-11-20T16:29:44.058Z,100.00
2018-11-20T16:34:59.633Z,100.00
2018-11-20T16:40:11.059Z,100.00
2018-11-20T16:45:39.338Z,100.00
2018-11-20T16:50:50.844Z,100.00
2018-11-20T16:56:09.807Z,100.00
2018-11-20T17:01:21.106Z,100.00
2018-11-20T17:06:37.620Z,100.00
2018-11-20T17:11:56.676Z,100.00
2018-11-20T17:17:12.725Z,100.00
2018-11-20T17:22:34.806Z,100.00
2018-11-20T17:27:47.836Z,100.00
2018-11-20T17:33:03.328Z,100.00
2018-11-20T17:38:34.067Z,100.00
2018-11-20T17:43:52.823Z,100.00
2018-11-20T17:49:04.002Z,99.98
2018-11-20T17:54:07.788Z,99.30
2018-11-20T17:59:29.391Z,98.83
2018-11-20T18:04:40.523Z,99.13
2018-11-20T18:09:48.217Z,98.55
2018-11-20T18:15:00.078Z,98.57
2018-11-20T18:21:18.326Z,98.60
2018-11-20T18:26:30.820Z,98.25
2018-11-20T18:31:49.061Z,97.24
2018-11-20T18:37:04.186Z,97.89
2018-11-20T18:42:16.092Z,99.11
2018-11-20T18:47:29.907Z,100.00
2018-11-20T18:52:54.219Z,100.00
2018-11-20T18:58:09.224Z,100.00
2018-11-20T19:03:20.201Z,100.00
2018-11-20T19:08:33.530Z,100.00
2018-11-20T19:13:44.527Z,100.00
2018-11-20T19:18:55.731Z,99.48
2018-11-20T19:24:06.576Z,99.92
2018-11-20T19:29:21.676Z,99.60
2018-11-20T19:34:36.369Z,99.89
2018-11-20T19:39:49.431Z,99.58
2018-11-20T19:45:04.755Z,99.70
2018-11-20T19:50:19.869Z,99.77
2018-11-20T19:55:30.923Z,100.00
2018-11-20T20:00:53.011Z,100.00
2018-11-20T20:06:08.126Z,100.00
2018-11-20T20:11:23.786Z,100.00
2018-11-20T20:16:35.911Z,100.00
2018-11-20T20:21:47.404Z,99.89
2018-11-20T20:27:14.968Z,99.28
2018-11-20T20:32:39.532Z,100.00
2018-11-20T20:38:06.604Z,100.00
2018-11-20T20:43:17.541Z,100.00
2018-11-20T20:48:42.061Z,100.00
2018-11-20T20:53:51.738Z,100.00
2018-11-20T20:59:22.117Z,100.00
2018-11-20T21:04:31.737Z,100.00
2018-11-20T21:09:42.409Z,100.00
2018-11-20T21:15:03.741Z,100.00
2018-11-20T21:20:19.055Z,100.00
2018-11-20T21:25:29.578Z,100.00
2018-11-20T21:30:43.285Z,100.00
2018-11-20T21:36:11.076Z,100.00
2018-11-20T21:41:25.952Z,100.00
2018-11-20T21:46:36.995Z,100.00
2018-11-20T21:51:51.154Z,100.00
2018-11-20T21:57:12.689Z,100.00
2018-11-20T22:02:22.730Z,100.00
2018-11-20T22:07:43.068Z,100.00
2018-11-20T22:12:53.238Z,100.00
2018-11-20T22:18:05.502Z,100.00
2018-11-20T22:23:11.222Z,100.00
2018-11-20T22:28:23.285Z,100.00
2018-11-20T22:33:34.343Z,100.00
2018-11-20T22:38:45.204Z,100.00
2018-11-20T22:43:55.956Z,100.00
2018-11-20T22:49:07.007Z,100.00
2018-11-20T22:54:29.399Z,100.00
2018-11-20T22:59:41.585Z,100.00
2018-11-20T23:04:58.121Z,100.00
2018-11-20T23:09:50.887Z,100.00
2018-11-20T23:14:43.561Z,100.00
2018-11-20T23:19:36.166Z,100.00
2018-11-20T23:24:28.837Z,100.00
2018-11-20T23:29:21.587Z,100.00
2018-11-20T23:34:14.245Z,100.00
2018-11-20T23:39:08.595Z,100.00
2018-11-20T23:44:01.482Z,100.00
2018-11-20T23:48:55.059Z,100.00
2018-11-20T23:53:47.723Z,100.00
2018-11-20T23:58:40.419Z,100.00
